SE-0031 weather

Kolåsens flygfält
Kolåsen, Jämtlande län, Sweden

Public forecast

Using degrees Celsius for public forecast. Weather courtesy of forecast.io.

Closest aviation weather report (METAR) to Kolåsens flygfält

Closest report is Åre Östersund Airport, 54.7 nm (101.3 km) SE. Retrieved 2020/04/02 06:20 UTC (21 minutes ago):

ESNZ 020620Z AUTO 16011KT 9999 NCD M01/M06 Q0980

Closest aviation forecast (TAF) to Kolåsens flygfält

Closest forecast is Trondheim Airport Værnes, 56.1 nm (103.9 km) WSW. Retrieved 2020/04/02 06:00 UTC (41 minutes ago):

TAF ENVA 020500Z 0206/0306 15015KT 9999 -SHRA FEW020TCU BKN035 TEMPO 0206/0221 1200 SHSNGS VV009 BECMG 0209/0212 26018KT TEMPO 0221/0306 30022G35KT 0500 SHSN VV005